createdAt,value
2018-08-07T00:00:45.353Z,26.1
2018-08-07T00:01:35.404Z,26.1
2018-08-07T00:02:25.981Z,26.1
2018-08-07T00:03:15.554Z,26.1
2018-08-07T00:04:05.638Z,26.1
2018-08-07T00:04:55.072Z,26.1
2018-08-07T00:05:45.934Z,26.1
2018-08-07T00:06:36.272Z,26.1
2018-08-07T00:07:26.041Z,26.1
2018-08-07T00:08:16.459Z,26.1
2018-08-07T00:09:05.966Z,26.1
2018-08-07T00:09:56.261Z,26.1
2018-08-07T00:10:46.055Z,26.1
2018-08-07T00:11:36.358Z,26.1
2018-08-07T00:12:26.404Z,26.1
2018-08-07T00:13:17.055Z,26.1
2018-08-07T00:14:06.848Z,26.1
2018-08-07T00:14:56.927Z,26.1
2018-08-07T00:15:47.148Z,26.1
2018-08-07T00:16:36.976Z,26.1
2018-08-07T00:17:27.037Z,26.1
2018-08-07T00:18:16.864Z,26.1
2018-08-07T00:19:07.176Z,26.1
2018-08-07T00:19:57.569Z,26.1
2018-08-07T00:20:47.641Z,26.1
2018-08-07T00:21:36.604Z,26.1
2018-08-07T00:22:27.235Z,26.1
2018-08-07T00:23:17.022Z,26.1
2018-08-07T00:24:07.303Z,26.1
2018-08-07T00:24:57.406Z,26.1
2018-08-07T00:25:47.137Z,26.1
2018-08-07T00:26:38.063Z,26.1
2018-08-07T00:27:27.887Z,26.1
2018-08-07T00:28:18.582Z,26.1
2018-08-07T00:29:07.970Z,26
2018-08-07T00:29:57.492Z,26.1
2018-08-07T00:30:47.821Z,26.1
2018-08-07T00:31:38.793Z,26
2018-08-07T00:32:28.225Z,26.1
2018-08-07T00:33:18.298Z,26.1
2018-08-07T00:34:08.670Z,26.1
2018-08-07T00:34:58.215Z,26.1
2018-08-07T00:35:48.881Z,26
2018-08-07T00:36:38.312Z,26.1
2018-08-07T00:37:28.101Z,26
2018-08-07T00:38:18.430Z,26.1
2018-08-07T00:39:09.314Z,26
2018-08-07T00:39:58.814Z,26.1
2018-08-07T00:40:48.945Z,26
2018-08-07T00:41:39.322Z,26
2018-08-07T00:42:28.132Z,26.1
2018-08-07T00:43:19.354Z,26
2018-08-07T00:44:09.183Z,26
2018-08-07T00:44:59.220Z,26
2018-08-07T00:45:49.020Z,26
2018-08-07T00:46:39.121Z,26
2018-08-07T00:47:28.841Z,26
2018-08-07T00:48:19.206Z,26
2018-08-07T00:49:08.651Z,26
2018-08-07T00:49:58.746Z,26
2018-08-07T00:50:49.405Z,26
2018-08-07T00:51:39.772Z,25.9
2018-08-07T00:52:29.170Z,25.9
2018-08-07T00:53:19.276Z,25.9
2018-08-07T00:54:09.650Z,25.9
2018-08-07T00:54:59.474Z,25.9
2018-08-07T00:55:49.776Z,25.9
2018-08-07T00:56:39.557Z,25.9
2018-08-07T00:57:29.618Z,25.9
2018-08-07T00:58:20.531Z,25.9
2018-08-07T00:59:09.432Z,25.9
2018-08-07T00:59:58.706Z,25.9
2018-08-07T01:00:49.578Z,25.9
2018-08-07T01:01:40.276Z,25.9
2018-08-07T01:02:29.722Z,25.9
2018-08-07T01:03:20.353Z,25.9
2018-08-07T01:04:09.855Z,25.9
2018-08-07T01:05:00.166Z,25.9
2018-08-07T01:05:49.930Z,25.9
2018-08-07T01:06:40.622Z,25.9
2018-08-07T01:07:31.056Z,25.9
2018-08-07T01:08:20.722Z,25.9
2018-08-07T01:09:10.221Z,25.9
2018-08-07T01:10:00.863Z,25.9
2018-08-07T01:10:51.495Z,25.9
2018-08-07T01:11:41.550Z,25.9
2018-08-07T01:12:31.517Z,25.9
2018-08-07T01:13:21.107Z,25.9
2018-08-07T01:14:12.039Z,25.9
2018-08-07T01:15:01.825Z,25.9
2018-08-07T01:15:51.600Z,25.9
2018-08-07T01:16:42.225Z,25.9
2018-08-07T01:17:32.302Z,25.9
2018-08-07T01:18:21.480Z,25.8
2018-08-07T01:19:11.569Z,25.8
2018-08-07T01:20:00.574Z,25.9
2018-08-07T01:20:52.300Z,25.9
2018-08-07T01:21:42.317Z,25.9
2018-08-07T01:22:32.087Z,25.8
2018-08-07T01:23:22.487Z,25.8
2018-08-07T01:24:12.247Z,25.8
2018-08-07T01:25:02.253Z,25.8
2018-08-07T01:25:51.222Z,25.8
2018-08-07T01:26:42.703Z,25.8
2018-08-07T01:27:32.799Z,25.8
2018-08-07T01:28:22.567Z,25.8
2018-08-07T01:29:12.334Z,25.8
2018-08-07T01:30:02.776Z,25.8
2018-08-07T01:30:52.547Z,25.9
2018-08-07T01:31:43.335Z,25.8
2018-08-07T01:32:32.354Z,25.9
2018-08-07T01:33:23.531Z,25.8
2018-08-07T01:34:12.691Z,25.8
2018-08-07T01:35:03.384Z,25.8
2018-08-07T01:35:53.443Z,25.8
2018-08-07T01:36:43.748Z,25.8
2018-08-07T01:37:33.789Z,25.8
2018-08-07T01:38:23.023Z,25.8
2018-08-07T01:39:13.632Z,25.8
2018-08-07T01:40:03.760Z,25.8
2018-08-07T01:40:53.515Z,25.8
2018-08-07T01:41:43.893Z,25.8
2018-08-07T01:42:33.435Z,25.8
2018-08-07T01:43:24.053Z,25.8
2018-08-07T01:44:13.512Z,25.8
2018-08-07T01:45:03.817Z,25.8
2018-08-07T01:45:54.171Z,25.8
2018-08-07T01:46:44.206Z,25.8
2018-08-07T01:47:33.997Z,25.8
2018-08-07T01:48:24.115Z,25.8
2018-08-07T01:49:14.416Z,25.8
2018-08-07T01:50:03.920Z,25.8
2018-08-07T01:50:53.951Z,25.8
2018-08-07T01:51:44.569Z,25.8
2018-08-07T01:52:34.082Z,25.8
2018-08-07T01:53:24.671Z,25.8
2018-08-07T01:54:15.082Z,25.8
2018-08-07T01:55:04.582Z,25.8
2018-08-07T01:55:54.139Z,25.8
2018-08-07T01:56:44.666Z,25.8
2018-08-07T01:57:35.324Z,25.8
2018-08-07T01:58:24.631Z,25.8
2018-08-07T01:59:14.679Z,25.8
2018-08-07T02:00:04.508Z,25.8
2018-08-07T05:07:06.833Z,25.1
2018-08-07T05:07:56.717Z,25.2
2018-08-07T05:08:46.471Z,25.1
2018-08-07T05:09:36.793Z,25.2
2018-08-07T05:10:27.400Z,25.2
2018-08-07T05:11:17.335Z,25.3
2018-08-07T05:12:07.601Z,25.3
2018-08-07T05:12:57.359Z,25.3
2018-08-07T05:13:47.312Z,25.3
2018-08-07T05:14:37.416Z,25.4
2018-08-07T05:15:26.641Z,25.4
2018-08-07T05:16:17.894Z,25.4
2018-08-07T05:17:07.988Z,25.4
2018-08-07T05:17:57.391Z,25.4
2018-08-07T05:18:47.263Z,25.4
2018-08-07T05:19:37.888Z,25.4
2018-08-07T05:20:27.952Z,25.4
2018-08-07T05:21:17.969Z,25.4
2018-08-07T05:22:07.493Z,25.4
2018-08-07T05:22:57.808Z,25.5
2018-08-07T05:23:47.375Z,25.5
2018-08-07T05:24:37.944Z,25.5
2018-08-07T05:25:28.253Z,25.5
2018-08-07T05:26:18.055Z,25.6
2018-08-07T05:27:07.983Z,25.6
2018-08-07T05:27:57.666Z,25.5
2018-08-07T05:28:49.995Z,25.6
2018-08-07T05:29:38.375Z,25.6
2018-08-07T05:30:28.383Z,25.6
2018-08-07T05:31:17.943Z,25.6
2018-08-07T05:32:08.019Z,25.6
2018-08-07T05:32:59.122Z,25.6
2018-08-07T05:33:48.164Z,25.6
2018-08-07T05:34:39.312Z,25.6
2018-08-07T05:35:29.050Z,25.6
2018-08-07T05:36:18.566Z,25.6
2018-08-07T05:37:08.651Z,25.6
2018-08-07T05:37:59.519Z,25.6
2018-08-07T05:38:49.026Z,25.6
2018-08-07T05:39:39.289Z,25.6
2018-08-07T05:40:44.228Z,25.6
2018-08-07T05:41:18.807Z,25.6
2018-08-07T05:42:09.379Z,25.6
2018-08-07T05:43:00.194Z,25.6
2018-08-07T05:43:49.776Z,25.7
2018-08-07T05:44:39.243Z,25.6
2018-08-07T05:45:29.236Z,25.6
2018-08-07T05:46:19.579Z,25.6
2018-08-07T05:47:09.966Z,25.6
2018-08-07T05:47:59.999Z,25.7
2018-08-07T05:48:49.578Z,25.6
2018-08-07T05:49:40.370Z,25.7
2018-08-07T05:50:34.260Z,25.7
2018-08-07T05:51:25.773Z,25.7
2018-08-07T05:52:10.052Z,25.7
2018-08-07T05:53:00.366Z,25.7
2018-08-07T05:53:50.998Z,25.7
2018-08-07T05:54:40.781Z,25.7
2018-08-07T05:55:30.849Z,25.7
2018-08-07T05:56:20.409Z,25.7
2018-08-07T05:57:10.176Z,25.7
2018-08-07T05:58:01.961Z,25.7
2018-08-07T05:59:04.753Z,25.7
2018-08-07T05:59:41.219Z,25.7
2018-08-07T06:00:30.458Z,25.7
2018-08-07T06:01:19.923Z,25.8
2018-08-07T06:02:11.468Z,25.8
2018-08-07T06:03:00.576Z,25.8
2018-08-07T06:03:50.471Z,25.8
2018-08-07T06:04:41.176Z,25.8
2018-08-07T06:05:31.324Z,25.8
2018-08-07T06:06:20.596Z,25.8
2018-08-07T06:07:11.205Z,25.8
2018-08-07T06:08:01.841Z,25.8
2018-08-07T06:09:06.286Z,25.8
2018-08-07T06:09:40.326Z,25.8
2018-08-07T06:10:30.926Z,25.8
2018-08-07T06:11:21.527Z,25.8
2018-08-07T06:12:11.861Z,25.8
2018-08-07T06:13:02.201Z,25.8
2018-08-07T06:13:51.266Z,25.8
2018-08-07T06:14:41.612Z,25.8
2018-08-07T06:15:31.931Z,25.9
2018-08-07T06:16:21.154Z,25.9
2018-08-07T06:17:12.126Z,25.9
2018-08-07T06:18:02.079Z,25.9
2018-08-07T06:18:51.371Z,25.9
2018-08-07T06:19:42.742Z,25.9
2018-08-07T06:20:32.551Z,25.9
2018-08-07T06:21:22.566Z,25.9
2018-08-07T06:22:13.314Z,25.9
2018-08-07T06:23:02.668Z,25.9
2018-08-07T06:23:52.803Z,25.9
2018-08-07T06:24:42.798Z,25.9
2018-08-07T06:25:33.393Z,25.9
2018-08-07T06:26:22.928Z,25.9
2018-08-07T06:27:12.790Z,25.9
2018-08-07T06:28:02.354Z,25.9
2018-08-07T06:28:52.135Z,25.9
2018-08-07T06:29:42.776Z,25.9
2018-08-07T06:30:31.464Z,25.9
2018-08-07T06:31:22.971Z,25.9
2018-08-07T06:32:12.651Z,25.9
2018-08-07T06:33:02.091Z,25.9
2018-08-07T06:33:52.342Z,25.9
2018-08-07T06:34:43.004Z,25.9
2018-08-07T06:35:32.627Z,25.9
2018-08-07T06:36:21.673Z,25.9
2018-08-07T06:37:13.250Z,25.9
2018-08-07T06:38:03.599Z,25.9
2018-08-07T06:38:53.689Z,25.9
2018-08-07T06:39:43.809Z,26
2018-08-07T06:40:33.294Z,26
2018-08-07T06:41:23.907Z,26
2018-08-07T06:42:13.676Z,26
2018-08-07T06:43:06.272Z,26
2018-08-07T06:43:54.694Z,26
2018-08-07T06:44:44.452Z,26
2018-08-07T06:45:34.459Z,26.1
2018-08-07T06:46:24.518Z,26.1
2018-08-07T06:47:13.747Z,26.1
2018-08-07T06:48:05.724Z,26.1
2018-08-07T06:48:54.967Z,26.2
2018-08-07T06:49:44.477Z,26.2
2018-08-07T06:50:34.588Z,26.2
2018-08-07T06:51:24.577Z,26.2
2018-08-07T06:52:14.947Z,26.2
2018-08-07T06:53:04.822Z,26.3
2018-08-07T06:54:09.271Z,26.3
2018-08-07T06:54:44.601Z,26.3
2018-08-07T06:55:34.975Z,26.3
2018-08-07T06:56:25.071Z,26.3
2018-08-07T06:57:16.119Z,26.3
2018-08-07T06:58:05.445Z,26.3
2018-08-07T06:58:54.983Z,26.3
2018-08-07T06:59:45.839Z,26.3
2018-08-07T07:00:35.621Z,26.3
2018-08-07T07:01:25.924Z,26.3
2018-08-07T07:02:15.782Z,26.3
2018-08-07T07:03:06.220Z,26.4
2018-08-07T07:03:55.403Z,26.4
2018-08-07T07:04:45.725Z,26.4
2018-08-07T07:05:35.558Z,26.4
2018-08-07T07:06:26.769Z,26.4
2018-08-07T07:07:16.140Z,26.4
2018-08-07T07:08:05.126Z,26.4
2018-08-07T07:08:55.772Z,26.4
2018-08-07T07:09:45.939Z,26.5
2018-08-07T07:10:35.368Z,26.4
2018-08-07T07:11:26.546Z,26.5
2018-08-07T07:12:16.566Z,26.5
2018-08-07T07:13:06.362Z,26.5
2018-08-07T07:13:55.869Z,26.6
2018-08-07T07:14:45.761Z,26.6
2018-08-07T07:15:35.689Z,26.6
2018-08-07T07:16:26.617Z,26.6
2018-08-07T07:17:16.395Z,26.5
2018-08-07T07:18:06.714Z,26.6
2018-08-07T07:18:55.225Z,26.6
2018-08-07T07:19:45.915Z,26.6
2018-08-07T07:20:35.665Z,26.5
2018-08-07T07:21:26.434Z,26.6
2018-08-07T07:22:16.544Z,26.6
2018-08-07T07:23:06.634Z,26.6
2018-08-07T07:23:57.175Z,26.6
2018-08-07T07:24:47.317Z,26.6
2018-08-07T07:25:36.898Z,26.6
2018-08-07T07:26:27.145Z,26.6
2018-08-07T07:27:17.430Z,26.6
2018-08-07T07:28:07.212Z,26.6
2018-08-07T07:28:57.839Z,26.6
2018-08-07T07:29:47.435Z,26.7
2018-08-07T07:30:38.190Z,26.7
2018-08-07T07:31:27.530Z,26.7
2018-08-07T07:32:18.074Z,26.7
2018-08-07T07:33:08.392Z,26.7
2018-08-07T07:33:57.930Z,26.7
2018-08-07T07:34:49.594Z,26.7
2018-08-07T07:35:38.650Z,26.7
2018-08-07T07:36:27.926Z,26.7
2018-08-07T07:37:18.765Z,26.8
2018-08-07T07:38:08.571Z,26.7
2018-08-07T07:38:58.877Z,26.8
2018-08-07T07:39:47.868Z,26.8
2018-08-07T07:40:38.770Z,26.8
2018-08-07T07:41:28.604Z,26.8
2018-08-07T07:42:18.380Z,26.8
2018-08-07T07:43:08.682Z,26.8
2018-08-07T07:43:57.425Z,26.8
2018-08-07T07:44:48.862Z,26.8
2018-08-07T07:45:38.939Z,26.8
2018-08-07T07:46:29.214Z,26.8
2018-08-07T07:47:33.342Z,26.8
2018-08-07T07:48:08.295Z,26.8
2018-08-07T07:48:59.122Z,26.8
2018-08-07T07:49:49.791Z,26.8
2018-08-07T07:50:39.867Z,26.8
2018-08-07T07:51:29.039Z,26.8
2018-08-07T07:52:19.888Z,26.8
2018-08-07T07:53:24.381Z,26.8
2018-08-07T07:54:00.797Z,26.8
2018-08-07T07:54:49.859Z,26.8
2018-08-07T07:55:39.361Z,26.9
2018-08-07T07:56:30.245Z,26.9
2018-08-07T07:57:20.263Z,26.9
2018-08-07T07:58:09.999Z,26.8
2018-08-07T07:59:00.397Z,26.9
2018-08-07T07:59:49.921Z,26.9
2018-08-07T08:00:39.758Z,26.9
2018-08-07T08:01:30.645Z,26.9
2018-08-07T08:02:20.695Z,26.9
2018-08-07T08:03:10.780Z,26.9
2018-08-07T08:03:59.990Z,26.9
2018-08-07T08:04:50.613Z,26.9
2018-08-07T08:05:42.031Z,26.9
2018-08-07T08:06:30.744Z,26.9
2018-08-07T08:07:20.650Z,26.9
2018-08-07T08:08:10.643Z,26.9
2018-08-07T08:09:00.928Z,26.9
2018-08-07T08:09:51.242Z,27
2018-08-07T08:10:40.552Z,27
2018-08-07T08:11:30.905Z,27
2018-08-07T08:12:21.201Z,27
2018-08-07T08:13:11.577Z,26.9
2018-08-07T08:14:01.605Z,26.9
2018-08-07T08:14:51.422Z,26.9
2018-08-07T08:15:41.833Z,26.9
2018-08-07T08:16:31.657Z,26.9
2018-08-07T08:17:21.602Z,26.9
2018-08-07T08:18:10.282Z,26.9
2018-08-07T08:19:01.727Z,26.9
2018-08-07T08:19:51.070Z,26.9
2018-08-07T08:20:41.649Z,26.9
2018-08-07T08:21:31.359Z,27
2018-08-07T08:22:22.320Z,27
2018-08-07T08:23:12.050Z,27
2018-08-07T08:24:01.563Z,27
2018-08-07T08:24:52.162Z,27
2018-08-07T08:25:42.578Z,27
2018-08-07T08:26:32.333Z,27
2018-08-07T08:27:22.172Z,27
2018-08-07T08:28:11.476Z,27
2018-08-07T08:29:03.238Z,27.1
2018-08-07T08:29:53.974Z,27.1
2018-08-07T08:30:41.539Z,27
2018-08-07T08:31:32.975Z,27
2018-08-07T08:32:22.567Z,27
2018-08-07T08:33:12.269Z,27
2018-08-07T08:34:02.586Z,27
2018-08-07T08:34:53.258Z,27
2018-08-07T08:35:43.829Z,27
2018-08-07T08:36:33.345Z,27
2018-08-07T08:37:23.076Z,27.1
2018-08-07T08:38:13.479Z,27.1
2018-08-07T08:39:03.573Z,27.1
2018-08-07T08:39:53.366Z,27.1
2018-08-07T08:40:42.659Z,27.1
2018-08-07T08:41:32.674Z,27.1
2018-08-07T08:42:23.858Z,27.1
2018-08-07T08:43:12.766Z,27.1
2018-08-07T08:44:03.376Z,27.1
2018-08-07T08:44:53.527Z,27.2
2018-08-07T08:45:43.832Z,27.2
2018-08-07T08:46:34.154Z,27.1
2018-08-07T08:47:23.640Z,27.2
2018-08-07T08:48:13.939Z,27.2
2018-08-07T08:49:03.824Z,27.2
2018-08-07T08:49:52.858Z,27.2
2018-08-07T08:50:43.376Z,27.2
2018-08-07T08:51:33.734Z,27.2
2018-08-07T08:52:24.342Z,27.2
2018-08-07T08:53:14.139Z,27.2
2018-08-07T08:54:05.077Z,27.2
2018-08-07T08:54:54.276Z,27.3
2018-08-07T08:55:43.856Z,27.3
2018-08-07T08:56:34.132Z,27.3
2018-08-07T08:57:25.052Z,27.2
2018-08-07T08:58:14.265Z,27.2
2018-08-07T08:59:04.411Z,27.2
2018-08-07T08:59:54.644Z,27.2
2018-08-07T09:00:44.214Z,27.3
2018-08-07T09:01:34.047Z,27.3
2018-08-07T09:02:25.423Z,27.3
2018-08-07T09:03:14.398Z,27.3
2018-08-07T09:04:05.284Z,27.3
2018-08-07T09:21:29.500Z,27
2018-08-07T09:22:20.131Z,27
2018-08-07T09:23:10.789Z,27
2018-08-07T09:24:00.242Z,27
2018-08-07T09:24:50.552Z,27
2018-08-07T09:25:44.674Z,27
2018-08-07T09:26:30.459Z,27
2018-08-07T09:27:20.465Z,27
2018-08-07T09:28:11.071Z,27.1
2018-08-07T09:29:00.682Z,27.1
2018-08-07T09:29:50.930Z,27.1
2018-08-07T09:30:40.520Z,27.1
2018-08-07T09:31:31.009Z,27.1
2018-08-07T09:32:21.172Z,27.2
2018-08-07T09:33:11.569Z,27.2
2018-08-07T09:34:01.282Z,27.2
2018-08-07T09:34:51.651Z,27.2
2018-08-07T09:35:41.183Z,27.2
2018-08-07T09:36:31.781Z,27.3
2018-08-07T09:37:21.623Z,27.3
2018-08-07T09:38:11.925Z,27.3
2018-08-07T09:39:02.064Z,27.3
2018-08-07T09:39:51.961Z,27.3
2018-08-07T09:40:41.674Z,27.3
2018-08-07T09:41:31.373Z,27.3
2018-08-07T09:42:22.250Z,27.3
2018-08-07T09:43:12.043Z,27.3
2018-08-07T09:44:02.153Z,27.3
2018-08-07T09:44:52.266Z,27.3
2018-08-07T09:45:41.967Z,27.3
2018-08-07T09:46:33.247Z,27.3
2018-08-07T09:47:21.887Z,27.3
2018-08-07T09:48:12.735Z,27.3
2018-08-07T09:49:02.484Z,27.3
2018-08-07T09:49:54.493Z,27.4
2018-08-07T09:50:42.353Z,27.4
2018-08-07T09:51:32.698Z,27.4
2018-08-07T09:52:24.084Z,27.4
2018-08-07T09:53:11.953Z,27.4
2018-08-07T09:54:03.100Z,27.4
2018-08-07T09:54:52.916Z,27.4
2018-08-07T09:55:42.690Z,27.4
2018-08-07T09:56:33.032Z,27.4
2018-08-07T09:57:22.796Z,27.4
2018-08-07T09:58:13.030Z,27.4
2018-08-07T09:59:02.720Z,27.4
2018-08-07T09:59:53.007Z,27.4
2018-08-07T10:00:42.870Z,27.4
2018-08-07T10:01:32.904Z,27.4
2018-08-07T10:02:24.006Z,27.4
2018-08-07T10:03:13.591Z,27.4
2018-08-07T10:04:03.349Z,27.4
2018-08-07T10:04:53.169Z,27.4
2018-08-07T10:05:44.271Z,27.4
2018-08-07T10:06:33.882Z,27.4
2018-08-07T10:07:24.001Z,27.4
2018-08-07T10:08:13.419Z,27.4
2018-08-07T10:09:03.189Z,27.4
2018-08-07T10:09:53.809Z,27.4
2018-08-07T10:10:43.933Z,27.4
2018-08-07T10:11:33.937Z,27.4
2018-08-07T10:12:24.776Z,27.4
2018-08-07T10:13:14.409Z,27.4
2018-08-07T10:14:04.139Z,27.4
2018-08-07T10:14:54.231Z,27.4
2018-08-07T10:15:44.521Z,27.4
2018-08-07T10:16:34.671Z,27.4
2018-08-07T10:17:24.763Z,27.4
2018-08-07T10:18:14.512Z,27.4
2018-08-07T10:19:05.111Z,27.4
2018-08-07T10:19:54.089Z,27.4
2018-08-07T10:20:44.124Z,27.4
2018-08-07T10:21:35.027Z,27.4
2018-08-07T10:22:24.560Z,27.4
2018-08-07T10:23:16.054Z,27.4
2018-08-07T10:24:04.626Z,27.4
2018-08-07T10:24:55.248Z,27.5
2018-08-07T10:25:45.603Z,27.4
2018-08-07T10:26:34.807Z,27.5
2018-08-07T10:27:25.713Z,27.5
2018-08-07T10:28:14.731Z,27.5
2018-08-07T10:29:05.586Z,27.5
2018-08-07T10:29:55.722Z,27.5
2018-08-07T10:30:45.712Z,27.5
2018-08-07T10:31:35.727Z,27.5
2018-08-07T10:32:25.411Z,27.5
2018-08-07T10:33:15.462Z,27.6
2018-08-07T10:34:06.000Z,27.6
2018-08-07T10:34:55.901Z,27.6
2018-08-07T10:35:46.117Z,27.6
2018-08-07T10:36:35.906Z,27.6
2018-08-07T10:37:26.260Z,27.6
2018-08-07T10:38:15.822Z,27.6
2018-08-07T10:39:06.117Z,27.6
2018-08-07T10:39:56.533Z,27.6
2018-08-07T10:40:48.696Z,27.6
2018-08-07T10:41:35.780Z,27.6
2018-08-07T10:42:26.402Z,27.6
2018-08-07T10:43:19.940Z,27.6
2018-08-07T10:44:07.334Z,27.6
2018-08-07T10:44:55.763Z,27.6
2018-08-07T10:45:46.637Z,27.6
2018-08-07T10:46:37.553Z,27.6
2018-08-07T10:47:26.195Z,27.6
2018-08-07T10:48:17.432Z,27.6
2018-08-07T10:49:06.659Z,27.6
2018-08-07T10:49:57.004Z,27.6
2018-08-07T10:50:46.676Z,27.6
2018-08-07T10:51:36.812Z,27.6
2018-08-07T10:52:28.317Z,27.6
2018-08-07T10:53:16.696Z,27.6
2018-08-07T10:54:07.565Z,27.6
2018-08-07T10:54:57.074Z,27.6
2018-08-07T10:55:46.856Z,27.6
2018-08-07T10:56:40.029Z,27.6
2018-08-07T10:57:27.713Z,27.6
2018-08-07T10:58:18.834Z,27.6
2018-08-07T10:59:08.565Z,27.6
2018-08-07T10:59:57.486Z,27.6
2018-08-07T11:00:47.486Z,27.6
2018-08-07T11:01:37.900Z,27.6
2018-08-07T11:02:28.517Z,27.6
2018-08-07T11:03:17.744Z,27.6
2018-08-07T11:04:08.443Z,27.6
2018-08-07T11:04:58.419Z,27.6
2018-08-07T11:05:50.040Z,27.6
2018-08-07T11:06:38.307Z,27.6
2018-08-07T11:07:27.754Z,27.6
2018-08-07T11:08:18.644Z,27.6
2018-08-07T11:09:08.188Z,27.6
2018-08-07T11:09:58.830Z,27.6
2018-08-07T11:10:48.309Z,27.6
2018-08-07T11:11:38.920Z,27.6
2018-08-07T11:12:29.261Z,27.6
2018-08-07T11:13:19.130Z,27.6
2018-08-07T11:14:08.841Z,27.6
2018-08-07T11:14:59.500Z,27.6
2018-08-07T11:15:49.002Z,27.6
2018-08-07T11:16:38.761Z,27.7
2018-08-07T11:17:29.407Z,27.7
2018-08-07T11:18:18.657Z,27.7
2018-08-07T11:19:09.244Z,27.7
2018-08-07T11:19:59.616Z,27.7
2018-08-07T11:20:49.413Z,27.7
2018-08-07T11:21:39.509Z,27.7
2018-08-07T11:22:29.230Z,27.7
2018-08-07T11:23:19.060Z,27.7
2018-08-07T11:24:09.639Z,27.8
2018-08-07T11:25:00.136Z,27.7
2018-08-07T11:25:49.798Z,27.7
2018-08-07T11:26:40.156Z,27.7
2018-08-07T11:27:29.941Z,27.7
2018-08-07T11:28:19.739Z,27.7
2018-08-07T11:29:10.372Z,27.7
2018-08-07T11:30:01.645Z,27.7
2018-08-07T11:30:50.215Z,27.7
2018-08-07T11:31:40.613Z,27.7
2018-08-07T11:32:30.594Z,27.7
2018-08-07T11:33:20.100Z,27.7
2018-08-07T11:34:11.041Z,27.8
2018-08-07T11:35:00.794Z,27.8
2018-08-07T11:35:50.378Z,27.8
2018-08-07T11:36:40.886Z,27.8
2018-08-07T11:37:29.641Z,27.8
2018-08-07T11:38:20.627Z,27.8
2018-08-07T11:39:11.187Z,27.8
2018-08-07T11:40:01.274Z,27.8
2018-08-07T11:40:51.269Z,27.8
2018-08-07T11:55:52.385Z,27.9
2018-08-07T12:08:22.102Z,27.9
2018-08-07T12:09:12.615Z,27.9
2018-08-07T12:10:53.308Z,27.9
2018-08-07T12:12:33.709Z,27.9
2018-08-07T12:15:03.913Z,27.9
2018-08-07T12:15:53.159Z,27.9
2018-08-07T12:16:43.789Z,27.9
2018-08-07T12:18:24.380Z,27.9
2018-08-07T12:19:13.643Z,27.9
2018-08-07T12:20:04.263Z,27.9
2018-08-07T12:20:54.313Z,27.9
2018-08-07T12:21:45.471Z,27.9
2018-08-07T12:22:34.780Z,27.9
2018-08-07T12:25:04.906Z,27.9
2018-08-07T12:25:54.473Z,27.9
2018-08-07T12:29:14.708Z,27.9
2018-08-07T12:36:45.082Z,27.9
2018-08-07T12:37:34.838Z,27.9
2018-08-07T12:38:25.196Z,27.9
2018-08-07T12:39:16.075Z,27.9
2018-08-07T12:40:05.876Z,27.9
2018-08-07T12:40:54.876Z,27.9
2018-08-07T12:41:46.048Z,27.9
2018-08-07T12:42:36.172Z,27.9
2018-08-07T12:43:26.218Z,27.9
2018-08-07T12:44:15.415Z,27.9
2018-08-07T12:45:06.312Z,27.9
2018-08-07T12:45:55.812Z,27.9
2018-08-07T12:46:47.647Z,27.9
2018-08-07T12:47:36.729Z,27.9
2018-08-07T12:48:26.513Z,27.9
2018-08-07T12:49:16.566Z,27.9
2018-08-07T12:50:06.687Z,27.9
2018-08-07T12:55:57.349Z,27.9
2018-08-07T12:58:27.324Z,27.9
2018-08-07T12:59:16.272Z,27.9
2018-08-07T13:00:07.483Z,27.9
2018-08-07T13:00:56.971Z,27.9
2018-08-07T13:01:47.578Z,27.9
2018-08-07T13:02:36.844Z,27.9
2018-08-07T13:03:27.753Z,27.9
2018-08-07T13:10:07.146Z,27.8
2018-08-07T13:11:48.127Z,27.8
2018-08-07T13:12:38.442Z,27.8
2018-08-07T13:13:28.486Z,27.8
2018-08-07T13:14:18.850Z,27.8
2018-08-07T13:16:48.289Z,27.8
2018-08-07T13:17:39.600Z,27.8
2018-08-07T13:18:28.328Z,27.8
2018-08-07T13:20:08.478Z,27.8
2018-08-07T13:22:39.257Z,27.8
2018-08-07T13:23:28.483Z,27.8
2018-08-07T13:24:18.555Z,27.8
2018-08-07T13:25:08.894Z,27.8
2018-08-07T13:26:00.523Z,27.8
2018-08-07T13:26:49.840Z,27.8
2018-08-07T13:27:39.335Z,27.8
2018-08-07T13:28:29.980Z,27.8
2018-08-07T13:29:18.880Z,27.8
2018-08-07T13:30:09.236Z,27.7
2018-08-07T13:30:59.037Z,27.8
2018-08-07T13:31:49.596Z,27.8
2018-08-07T13:32:39.718Z,27.8
2018-08-07T13:33:30.219Z,27.8
2018-08-07T13:34:19.902Z,27.8
2018-08-07T13:35:09.408Z,27.8
2018-08-07T13:35:59.160Z,27.7
2018-08-07T13:36:49.695Z,27.7
2018-08-07T13:37:40.580Z,27.8
2018-08-07T13:38:30.069Z,27.8
2018-08-07T13:39:19.841Z,27.8
2018-08-07T13:40:10.441Z,27.8
2018-08-07T13:41:01.161Z,27.8
2018-08-07T13:41:50.276Z,27.8
2018-08-07T13:42:40.956Z,27.8
2018-08-07T13:43:30.582Z,27.7
2018-08-07T13:44:20.922Z,27.7
2018-08-07T13:45:11.247Z,27.7
2018-08-07T13:46:01.097Z,27.7
2018-08-07T13:46:51.120Z,27.7
2018-08-07T13:47:41.395Z,27.7
2018-08-07T13:48:31.533Z,27.7
2018-08-07T13:49:21.266Z,27.7
2018-08-07T13:50:11.595Z,27.7
2018-08-07T13:51:01.368Z,27.7
2018-08-07T13:51:50.638Z,27.7
2018-08-07T13:52:41.851Z,27.7
2018-08-07T13:53:31.869Z,27.7
2018-08-07T13:54:21.923Z,27.7
2018-08-07T13:55:11.470Z,27.7
2018-08-07T13:56:04.036Z,27.7
2018-08-07T13:56:51.917Z,27.7
2018-08-07T13:57:41.703Z,27.7
2018-08-07T13:58:32.047Z,27.7
2018-08-07T13:59:21.504Z,27.7
2018-08-07T14:00:11.911Z,27.7
2018-08-07T14:01:02.236Z,27.7
2018-08-07T14:01:51.185Z,27.7
2018-08-07T14:02:41.807Z,27.7
2018-08-07T14:03:32.306Z,27.7
2018-08-07T14:04:21.673Z,27.7
2018-08-07T14:05:12.286Z,27.7
2018-08-07T14:06:02.406Z,27.7
2018-08-07T14:06:51.943Z,27.7
2018-08-07T14:07:41.477Z,27.7
2018-08-07T14:08:32.549Z,27.7
2018-08-07T14:09:22.719Z,27.7
2018-08-07T14:10:13.287Z,27.7
2018-08-07T14:11:02.497Z,27.7
2018-08-07T14:11:52.802Z,27.7
2018-08-07T14:12:42.739Z,27.7
2018-08-07T14:13:32.649Z,27.7
2018-08-07T14:14:23.023Z,27.7
2018-08-07T14:15:12.516Z,27.7
2018-08-07T14:16:03.173Z,27.7
2018-08-07T14:16:52.983Z,27.7
2018-08-07T14:17:43.799Z,27.7
2018-08-07T14:18:33.631Z,27.7
2018-08-07T14:19:23.222Z,27.7
2018-08-07T14:20:13.716Z,27.7
2018-08-07T14:21:02.687Z,27.7
2018-08-07T14:21:53.295Z,27.7
2018-08-07T14:22:43.647Z,27.7
2018-08-07T14:23:34.326Z,27.7
2018-08-07T14:24:23.793Z,27.7
2018-08-07T14:25:13.353Z,27.7
2018-08-07T14:26:02.766Z,27.7
2018-08-07T14:26:53.727Z,27.7
2018-08-07T14:27:43.601Z,27.7
2018-08-07T14:28:34.543Z,27.7
2018-08-07T14:29:23.535Z,27.6
2018-08-07T14:30:13.381Z,27.7
2018-08-07T14:31:04.043Z,27.7
2018-08-07T14:31:54.435Z,27.6
2018-08-07T14:32:44.563Z,27.6
2018-08-07T14:33:33.959Z,27.6
2018-08-07T14:34:24.830Z,27.7
2018-08-07T14:35:14.350Z,27.6
2018-08-07T14:36:04.179Z,27.6
2018-08-07T14:36:57.286Z,27.6
2018-08-07T14:37:45.147Z,27.6
2018-08-07T14:38:34.390Z,27.6
2018-08-07T14:39:24.777Z,27.6
2018-08-07T14:40:15.077Z,27.6
2018-08-07T14:41:04.793Z,27.6
2018-08-07T14:41:55.516Z,27.6
2018-08-07T14:42:45.737Z,27.6
2018-08-07T14:43:35.283Z,27.6
2018-08-07T14:44:25.815Z,27.7
2018-08-07T14:45:15.711Z,27.7
2018-08-07T14:46:05.800Z,27.6
2018-08-07T14:46:55.670Z,27.6
2018-08-07T14:47:46.494Z,27.6
2018-08-07T14:48:35.123Z,27.6
2018-08-07T14:49:26.090Z,27.6
2018-08-07T14:50:16.375Z,27.6
2018-08-07T14:51:06.437Z,27.6
2018-08-07T14:51:55.925Z,27.6
2018-08-07T14:52:46.505Z,27.6
2018-08-07T14:53:36.560Z,27.6
2018-08-07T14:54:26.715Z,27.6
2018-08-07T14:55:16.812Z,27.6
2018-08-07T14:56:06.470Z,27.6
2018-08-07T14:56:56.805Z,27.6
2018-08-07T14:57:46.065Z,27.6
2018-08-07T14:58:36.773Z,27.6
2018-08-07T14:59:26.553Z,27.6
2018-08-07T15:00:17.347Z,27.6
2018-08-07T15:01:06.972Z,27.6
2018-08-07T15:01:56.454Z,27.6
2018-08-07T15:02:46.662Z,27.6
2018-08-07T15:03:36.373Z,27.6
2018-08-07T15:04:26.993Z,27.6
2018-08-07T15:05:17.471Z,27.6
2018-08-07T15:06:06.817Z,27.6
2018-08-07T15:06:57.208Z,27.6
2018-08-07T15:07:47.199Z,27.6
2018-08-07T15:08:37.833Z,27.6
2018-08-07T15:09:27.648Z,27.6
2018-08-07T15:10:17.166Z,27.6
2018-08-07T15:11:07.533Z,27.6
2018-08-07T15:11:58.373Z,27.6
2018-08-07T15:12:48.412Z,27.6
2018-08-07T15:13:37.771Z,27.6
2018-08-07T15:14:27.917Z,27.6
2018-08-07T15:15:18.020Z,27.6
2018-08-07T15:16:07.913Z,27.6
2018-08-07T15:16:57.390Z,27.6
2018-08-07T15:17:47.962Z,27.6
2018-08-07T15:18:37.797Z,27.6
2018-08-07T15:19:27.259Z,27.6
2018-08-07T15:20:17.927Z,27.6
2018-08-07T15:21:08.813Z,27.6
2018-08-07T15:21:58.294Z,27.6
2018-08-07T15:22:47.830Z,27.6
2018-08-07T15:23:37.955Z,27.6
2018-08-07T15:24:27.967Z,27.6
2018-08-07T15:25:18.319Z,27.6
2018-08-07T15:26:08.919Z,27.6
2018-08-07T15:26:57.861Z,27.6
2018-08-07T15:27:48.783Z,27.6
2018-08-07T15:28:39.118Z,27.6
2018-08-07T15:29:29.439Z,27.6
2018-08-07T15:30:19.281Z,27.6
2018-08-07T15:31:09.551Z,27.6